Christian Reinauer — WDA6472 — position and weather

sailwx.info

Track history (hours):
 
Tides and Currents Weather Stations Pressure Air Temp Water Temp Dewpoint Dewpoint Depression Visibility Wind Speed Wind Dir Waves Ship Positions

Christian Reinauer

More information available from US FCC via Universal Licensing System and Coast Guard Vessel Documentation Center.

Last reported at 2014-Jul-20 01:29 UTC. Time now 2014-Jul-24 20:12 UTC.
Position N 25°38' W 080°03'.

Length 170 m; draft 6.5 m.

Type: Ship (hazmat cat B). MMSI: 366832740.

Date/timePositionNaut miles runAvg speedWind from/ knotsBaromVisibWave heightAir tempDewpointWater temp
2014-Jul-20 01:29N 25°38' W 080°03'7 8.0
2014-Jul-20 00:33N 25°45' W 080°03'9 9.0
2014-Jul-19 23:33N 25°54' W 080°04'1111.3
2014-Jul-19 22:33N 26°05' W 080°05'2 1.9
2014-Jul-19 21:30N 26°05' W 080°07'0 0.0
2014-Jul-19 20:30N 26°05' W 080°07'0 0.0
2014-Jul-19 19:30N 26°05' W 080°07'0 0.0
2014-Jul-19 18:30N 26°05' W 080°07'0 0.0
2014-Jul-19 17:30N 26°05' W 080°07'0 0.0
2014-Jul-19 16:27N 26°05' W 080°07'0 0.0
2014-Jul-19 15:33N 26°05' W 080°07'0 0.0
2014-Jul-19 14:33N 26°05' W 080°07'0 0.0
2014-Jul-19 13:33N 26°05' W 080°07'0 0.0
2014-Jul-19 12:33N 26°05' W 080°07'0 0.0
2014-Jul-19 11:33N 26°05' W 080°07'0 0.0
2014-Jul-19 10:33N 26°05' W 080°07'0 0.0
2014-Jul-19 09:33N 26°05' W 080°07'0 0.3
2014-Jul-19 08:33N 26°06' W 080°07'5 5.2
2014-Jul-19 07:33N 26°08' W 080°02'5 5.3
2014-Jul-19 06:33N 26°03' W 080°03'1313.2
2014-Jul-19 05:33N 25°50' W 080°01'1514.9
2014-Jul-19 04:33N 25°35' W 080°01'200 5.4
2014-Jul-17 15:33N 27°35' W 082°60'1111.2
2014-Jul-17 14:33N 27°37' W 082°47'1110.7
2014-Jul-17 13:33N 27°40' W 082°36'8 7.6
2014-Jul-17 12:33N 27°48' W 082°34'4 4.1
2014-Jul-17 11:33N 27°52' W 082°33'0 0.0
2014-Jul-17 10:33N 27°52' W 082°33'0 0.0
2014-Jul-17 09:33N 27°52' W 082°33'0 0.0
2014-Jul-17 08:33N 27°52' W 082°33'0 0.0
2014-Jul-17 07:33N 27°52' W 082°33'0 0.0
2014-Jul-17 06:33N 27°52' W 082°33'0 0.0
2014-Jul-17 05:30N 27°52' W 082°33'0 0.0
2014-Jul-17 04:33N 27°52' W 082°33'0 0.0
2014-Jul-17 03:33N 27°52' W 082°33'0 0.0
2014-Jul-17 02:33N 27°52' W 082°33'0 0.0
2014-Jul-17 01:33N 27°52' W 082°33'0 0.0
2014-Jul-17 00:33N 27°52' W 082°33'0 0.0
2014-Jul-16 23:30N 27°52' W 082°33'0 0.0
2014-Jul-16 22:33N 27°52' W 082°33'0 0.0
2014-Jul-16 21:33N 27°52' W 082°33'0 0.0
2014-Jul-16 20:33N 27°52' W 082°33'0 0.0
2014-Jul-16 19:33N 27°52' W 082°33'0 0.0
2014-Jul-16 18:27N 27°52' W 082°33'0 0.0
2014-Jul-16 17:30N 27°52' W 082°33'0 0.0
2014-Jul-16 16:33N 27°52' W 082°33'0 0.0
2014-Jul-16 15:33N 27°52' W 082°33'0 0.0
2014-Jul-16 14:33N 27°52' W 082°33'0 0.0
2014-Jul-16 13:30N 27°52' W 082°33'0 0.0
2014-Jul-16 12:30N 27°52' W 082°33'2 1.9
2014-Jul-16 11:33N 27°50' W 082°34'7 6.7
2014-Jul-16 10:33N 27°44' W 082°32'1110.9
2014-Jul-16 09:33N 27°37' W 082°41'1010.4
2014-Jul-16 08:33N 27°36' W 082°53'3 3.0
2014-Jul-16 07:31N 27°38' W 082°56'0 0.1
2014-Jul-16 06:29N 27°38' W 082°56'0 0.0
2014-Jul-16 05:32N 27°38' W 082°56'0 0.1
2014-Jul-16 04:32N 27°38' W 082°56'0 0.0
2014-Jul-16 03:32N 27°38' W 082°56'0 0.0
2014-Jul-16 02:32N 27°38' W 082°56'0 0.0
2014-Jul-16 01:29N 27°38' W 082°56'0 0.0
2014-Jul-15 23:29N 27°38' W 082°56'0 0.0
2014-Jul-15 22:08N 27°38' W 082°56'0 0.0
2014-Jul-15 21:32N 27°38' W 082°56'0 0.0
2014-Jul-15 20:32N 27°38' W 082°56'0 0.0
2014-Jul-15 19:32N 27°38' W 082°56'0 0.0
2014-Jul-15 18:32N 27°38' W 082°56'0 0.0
2014-Jul-15 17:29N 27°38' W 082°56'0 0.0
2014-Jul-15 16:20N 27°38' W 082°56'0 0.0
2014-Jul-15 15:32N 27°38' W 082°56'0 0.0
2014-Jul-15 14:32N 27°38' W 082°56'0 0.0
2014-Jul-15 13:20N 27°38' W 082°56'0 0.2
2014-Jul-15 12:33N 27°38' W 082°56'5 5.1
2014-Jul-15 11:33N 27°38' W 083°02'  
Track history (hours):
 
Tides and Currents Weather Stations Pressure Air Temp Water Temp Dewpoint Dewpoint Depression Visibility Wind Speed Wind Dir Waves Ship Positions

Christian Reinauer

More information available from US FCC via Universal Licensing System and Coast Guard Vessel Documentation Center.

Last reported at 2014-Jul-20 01:29 UTC. Time now 2014-Jul-24 20:12 UTC.
Position N 25°38' W 080°03'.

Length 170 m; draft 6.5 m.

Type: Ship (hazmat cat B). MMSI: 366832740.

Date/timePositionNaut miles runAvg speedWind from/ knotsBaromVisibWave heightAir tempDewpointWater temp
2014-Jul-20 01:29N 25°38' W 080°03'7 8.0
2014-Jul-20 00:33N 25°45' W 080°03'9 9.0
2014-Jul-19 23:33N 25°54' W 080°04'1111.3
2014-Jul-19 22:33N 26°05' W 080°05'2 1.9
2014-Jul-19 21:30N 26°05' W 080°07'0 0.0
2014-Jul-19 20:30N 26°05' W 080°07'0 0.0
2014-Jul-19 19:30N 26°05' W 080°07'0 0.0
2014-Jul-19 18:30N 26°05' W 080°07'0 0.0
2014-Jul-19 17:30N 26°05' W 080°07'0 0.0
2014-Jul-19 16:27N 26°05' W 080°07'0 0.0
2014-Jul-19 15:33N 26°05' W 080°07'0 0.0
2014-Jul-19 14:33N 26°05' W 080°07'0 0.0
2014-Jul-19 13:33N 26°05' W 080°07'0 0.0
2014-Jul-19 12:33N 26°05' W 080°07'0 0.0
2014-Jul-19 11:33N 26°05' W 080°07'0 0.0
2014-Jul-19 10:33N 26°05' W 080°07'0 0.0
2014-Jul-19 09:33N 26°05' W 080°07'0 0.3
2014-Jul-19 08:33N 26°06' W 080°07'5 5.2
2014-Jul-19 07:33N 26°08' W 080°02'5 5.3
2014-Jul-19 06:33N 26°03' W 080°03'1313.2
2014-Jul-19 05:33N 25°50' W 080°01'1514.9
2014-Jul-19 04:33N 25°35' W 080°01'200 5.4
2014-Jul-17 15:33N 27°35' W 082°60'1111.2
2014-Jul-17 14:33N 27°37' W 082°47'1110.7
2014-Jul-17 13:33N 27°40' W 082°36'8 7.6
2014-Jul-17 12:33N 27°48' W 082°34'4 4.1
2014-Jul-17 11:33N 27°52' W 082°33'0 0.0
2014-Jul-17 10:33N 27°52' W 082°33'0 0.0
2014-Jul-17 09:33N 27°52' W 082°33'0 0.0
2014-Jul-17 08:33N 27°52' W 082°33'0 0.0
2014-Jul-17 07:33N 27°52' W 082°33'0 0.0
2014-Jul-17 06:33N 27°52' W 082°33'0 0.0
2014-Jul-17 05:30N 27°52' W 082°33'0 0.0
2014-Jul-17 04:33N 27°52' W 082°33'0 0.0
2014-Jul-17 03:33N 27°52' W 082°33'0 0.0
2014-Jul-17 02:33N 27°52' W 082°33'0 0.0
2014-Jul-17 01:33N 27°52' W 082°33'0 0.0
2014-Jul-17 00:33N 27°52' W 082°33'0 0.0
2014-Jul-16 23:30N 27°52' W 082°33'0 0.0
2014-Jul-16 22:33N 27°52' W 082°33'0 0.0
2014-Jul-16 21:33N 27°52' W 082°33'0 0.0
2014-Jul-16 20:33N 27°52' W 082°33'0 0.0
2014-Jul-16 19:33N 27°52' W 082°33'0 0.0
2014-Jul-16 18:27N 27°52' W 082°33'0 0.0
2014-Jul-16 17:30N 27°52' W 082°33'0 0.0
2014-Jul-16 16:33N 27°52' W 082°33'0 0.0
2014-Jul-16 15:33N 27°52' W 082°33'0 0.0
2014-Jul-16 14:33N 27°52' W 082°33'0 0.0
2014-Jul-16 13:30N 27°52' W 082°33'0 0.0
2014-Jul-16 12:30N 27°52' W 082°33'2 1.9
2014-Jul-16 11:33N 27°50' W 082°34'7 6.7
2014-Jul-16 10:33N 27°44' W 082°32'1110.9
2014-Jul-16 09:33N 27°37' W 082°41'1010.4
2014-Jul-16 08:33N 27°36' W 082°53'3 3.0
2014-Jul-16 07:31N 27°38' W 082°56'0 0.1
2014-Jul-16 06:29N 27°38' W 082°56'0 0.0
2014-Jul-16 05:32N 27°38' W 082°56'0 0.1
2014-Jul-16 04:32N 27°38' W 082°56'0 0.0
2014-Jul-16 03:32N 27°38' W 082°56'0 0.0
2014-Jul-16 02:32N 27°38' W 082°56'0 0.0
2014-Jul-16 01:29N 27°38' W 082°56'0 0.0
2014-Jul-15 23:29N 27°38' W 082°56'0 0.0
2014-Jul-15 22:08N 27°38' W 082°56'0 0.0
2014-Jul-15 21:32N 27°38' W 082°56'0 0.0
2014-Jul-15 20:32N 27°38' W 082°56'0 0.0
2014-Jul-15 19:32N 27°38' W 082°56'0 0.0
2014-Jul-15 18:32N 27°38' W 082°56'0 0.0
2014-Jul-15 17:29N 27°38' W 082°56'0 0.0
2014-Jul-15 16:20N 27°38' W 082°56'0 0.0
2014-Jul-15 15:32N 27°38' W 082°56'0 0.0
2014-Jul-15 14:32N 27°38' W 082°56'0 0.0
2014-Jul-15 13:20N 27°38' W 082°56'0 0.2
2014-Jul-15 12:33N 27°38' W 082°56'5 5.1
2014-Jul-15 11:33N 27°38' W 083°02'  

Dump ship's entire track history